sensor_id;sensor_type;location;lat;lon;timestamp;pressure;altitude;pressure_sealevel;temperature;humidity
71465;BME280;59274;49.874;9.154;2023-02-11T00:01:10;102421.41;;;-0.16;100.00
71465;BME280;59274;49.874;9.154;2023-02-11T00:03:36;102418.31;;;-0.08;100.00
71465;BME280;59274;49.874;9.154;2023-02-11T00:06:05;102415.91;;;-0.10;100.00
71465;BME280;59274;49.874;9.154;2023-02-11T00:08:33;102410.22;;;-0.13;100.00
71465;BME280;59274;49.874;9.154;2023-02-11T00:10:59;102395.75;;;-0.17;100.00
71465;BME280;59274;49.874;9.154;2023-02-11T00:13:25;102402.16;;;-0.18;100.00
71465;BME280;59274;49.874;9.154;2023-02-11T00:15:50;102412.34;;;-0.15;100.00
71465;BME280;59274;49.874;9.154;2023-02-11T00:18:16;102417.69;;;-0.15;100.00
71465;BME280;59274;49.874;9.154;2023-02-11T00:20:41;102421.41;;;-0.16;100.00
71465;BME280;59274;49.874;9.154;2023-02-11T00:23:07;102423.50;;;-0.18;100.00
71465;BME280;59274;49.874;9.154;2023-02-11T00:25:37;102426.34;;;-0.25;100.00
71465;BME280;59274;49.874;9.154;2023-02-11T00:28:03;102427.75;;;-0.22;100.00
71465;BME280;59274;49.874;9.154;2023-02-11T00:30:28;102429.97;;;-0.14;100.00
71465;BME280;59274;49.874;9.154;2023-02-11T00:32:54;102415.50;;;-0.18;100.00
71465;BME280;59274;49.874;9.154;2023-02-11T00:35:19;102410.03;;;-0.07;100.00
71465;BME280;59274;49.874;9.154;2023-02-11T00:37:44;102413.66;;;0.04;100.00
71465;BME280;59274;49.874;9.154;2023-02-11T00:40:10;102411.13;;;0.14;100.00
71465;BME280;59274;49.874;9.154;2023-02-11T00:42:36;102409.31;;;0.20;100.00
71465;BME280;59274;49.874;9.154;2023-02-11T00:45:02;102410.25;;;0.30;100.00
71465;BME280;59274;49.874;9.154;2023-02-11T00:47:27;102415.53;;;0.47;100.00
71465;BME280;59274;49.874;9.154;2023-02-11T00:49:53;102399.56;;;0.57;100.00
71465;BME280;59274;49.874;9.154;2023-02-11T00:52:19;102408.16;;;0.59;100.00
71465;BME280;59274;49.874;9.154;2023-02-11T00:54:44;102403.66;;;0.65;100.00
71465;BME280;59274;49.874;9.154;2023-02-11T00:57:10;102399.53;;;0.52;100.00
71465;BME280;59274;49.874;9.154;2023-02-11T00:59:35;102399.88;;;0.61;100.00
71465;BME280;59274;49.874;9.154;2023-02-11T01:02:01;102400.47;;;0.63;100.00
71465;BME280;59274;49.874;9.154;2023-02-11T01:04:26;102409.56;;;0.67;100.00
71465;BME280;59274;49.874;9.154;2023-02-11T01:06:52;102412.00;;;0.68;100.00
71465;BME280;59274;49.874;9.154;2023-02-11T01:09:17;102409.28;;;0.63;100.00
71465;BME280;59274;49.874;9.154;2023-02-11T01:11:43;102399.31;;;0.59;99.74
71465;BME280;59274;49.874;9.154;2023-02-11T01:14:09;102411.41;;;0.61;100.00
71465;BME280;59274;49.874;9.154;2023-02-11T01:16:34;102394.94;;;0.48;100.00
71465;BME280;59274;49.874;9.154;2023-02-11T01:19:00;102396.59;;;0.54;100.00
71465;BME280;59274;49.874;9.154;2023-02-11T01:21:25;102393.91;;;0.49;100.00
71465;BME280;59274;49.874;9.154;2023-02-11T01:23:51;102399.28;;;0.54;100.00
71465;BME280;59274;49.874;9.154;2023-02-11T01:26:17;102393.13;;;0.53;100.00
71465;BME280;59274;49.874;9.154;2023-02-11T01:28:42;102390.69;;;0.52;100.00
71465;BME280;59274;49.874;9.154;2023-02-11T01:31:08;102394.44;;;0.51;100.00
71465;BME280;59274;49.874;9.154;2023-02-11T01:33:33;102385.34;;;0.52;100.00
71465;BME280;59274;49.874;9.154;2023-02-11T01:36:02;102383.81;;;0.56;100.00
71465;BME280;59274;49.874;9.154;2023-02-11T01:38:28;102381.81;;;0.46;100.00
71465;BME280;59274;49.874;9.154;2023-02-11T01:41:20;102369.56;;;0.50;100.00
71465;BME280;59274;49.874;9.154;2023-02-11T01:43:48;102369.53;;;0.45;100.00
71465;BME280;59274;49.874;9.154;2023-02-11T01:46:33;102357.13;;;0.34;100.00
71465;BME280;59274;49.874;9.154;2023-02-11T01:49:15;102359.72;;;0.29;100.00
71465;BME280;59274;49.874;9.154;2023-02-11T01:51:43;102343.06;;;0.22;100.00
71465;BME280;59274;49.874;9.154;2023-02-11T01:54:15;102341.28;;;0.27;100.00
71465;BME280;59274;49.874;9.154;2023-02-11T01:57:01;102325.75;;;0.24;100.00
71465;BME280;59274;49.874;9.154;2023-02-11T02:02:27;102311.63;;;0.29;100.00
71465;BME280;59274;49.874;9.154;2023-02-11T02:05:06;102315.38;;;0.28;100.00
71465;BME280;59274;49.874;9.154;2023-02-11T02:07:43;102306.28;;;0.29;100.00
71465;BME280;59274;49.874;9.154;2023-02-11T02:10:16;102313.03;;;0.36;100.00
71465;BME280;59274;49.874;9.154;2023-02-11T02:12:43;102307.44;;;0.38;100.00
71465;BME280;59274;49.874;9.154;2023-02-11T02:15:29;102298.09;;;0.35;100.00
71465;BME280;59274;49.874;9.154;2023-02-11T02:18:23;102293.38;;;0.48;100.00
71465;BME280;59274;49.874;9.154;2023-02-11T02:33:59;102288.66;;;0.60;100.00
71465;BME280;59274;49.874;9.154;2023-02-11T02:36:45;102287.13;;;0.64;100.00
71465;BME280;59274;49.874;9.154;2023-02-11T02:39:42;102290.28;;;0.61;100.00
71465;BME280;59274;49.874;9.154;2023-02-11T02:42:10;102286.47;;;0.52;100.00
71465;BME280;59274;49.874;9.154;2023-02-11T02:44:37;102284.56;;;0.47;100.00
71465;BME280;59274;49.874;9.154;2023-02-11T02:47:02;102292.06;;;0.50;100.00
71465;BME280;59274;49.874;9.154;2023-02-11T02:49:28;102293.38;;;0.48;100.00
71465;BME280;59274;49.874;9.154;2023-02-11T02:52:04;102300.56;;;0.42;100.00
71465;BME280;59274;49.874;9.154;2023-02-11T03:03:34;102292.31;;;0.49;100.00
71465;BME280;59274;49.874;9.154;2023-02-11T03:06:14;102303.56;;;0.51;100.00
71465;BME280;59274;49.874;9.154;2023-02-11T03:08:48;102303.16;;;0.64;100.00
71465;BME280;59274;49.874;9.154;2023-02-11T03:11:18;102302.41;;;0.73;100.00
71465;BME280;59274;49.874;9.154;2023-02-11T03:13:45;102298.22;;;0.83;100.00
71465;BME280;59274;49.874;9.154;2023-02-11T03:16:17;102308.91;;;0.83;100.00
71465;BME280;59274;49.874;9.154;2023-02-11T03:18:49;102302.53;;;0.89;100.00
71465;BME280;59274;49.874;9.154;2023-02-11T03:21:17;102294.03;;;0.92;100.00
71465;BME280;59274;49.874;9.154;2023-02-11T03:23:54;102297.22;;;0.94;100.00
71465;BME280;59274;49.874;9.154;2023-02-11T03:26:43;102302.09;;;1.02;100.00
71465;BME280;59274;49.874;9.154;2023-02-11T03:31:58;102299.34;;;0.55;100.00
71465;BME280;59274;49.874;9.154;2023-02-11T03:34:32;102298.75;;;0.21;100.00
71465;BME280;59274;49.874;9.154;2023-02-11T03:37:15;102288.94;;;0.31;100.00
71465;BME280;59274;49.874;9.154;2023-02-11T03:39:45;102286.19;;;0.21;100.00
71465;BME280;59274;49.874;9.154;2023-02-11T03:42:13;102299.59;;;0.26;100.00
71465;BME280;59274;49.874;9.154;2023-02-11T03:44:44;102291.25;;;0.23;100.00
71465;BME280;59274;49.874;9.154;2023-02-11T03:47:12;102281.78;;;0.10;100.00
71465;BME280;59274;49.874;9.154;2023-02-11T03:49:41;102278.06;;;0.11;100.00
71465;BME280;59274;49.874;9.154;2023-02-11T03:52:08;102264.66;;;0.06;100.00
71465;BME280;59274;49.874;9.154;2023-02-11T03:54:38;102245.56;;;-0.08;100.00
71465;BME280;59274;49.874;9.154;2023-02-11T03:57:06;102246.06;;;-0.11;100.00
71465;BME280;59274;49.874;9.154;2023-02-11T03:59:48;102241.00;;;-0.07;100.00
71465;BME280;59274;49.874;9.154;2023-02-11T04:02:14;102240.91;;;0.10;100.00
71465;BME280;59274;49.874;9.154;2023-02-11T04:04:39;102231.69;;;0.22;100.00
71465;BME280;59274;49.874;9.154;2023-02-11T04:07:05;102228.97;;;0.17;100.00
71465;BME280;59274;49.874;9.154;2023-02-11T04:09:30;102233.25;;;0.18;100.00
71465;BME280;59274;49.874;9.154;2023-02-11T04:11:55;102227.91;;;0.18;100.00
71465;BME280;59274;49.874;9.154;2023-02-11T04:14:21;102213.97;;;0.11;100.00
71465;BME280;59274;49.874;9.154;2023-02-11T04:16:46;102217.09;;;0.03;100.00
71465;BME280;59274;49.874;9.154;2023-02-11T04:19:12;102218.09;;;-0.03;100.00
71465;BME280;59274;49.874;9.154;2023-02-11T04:21:37;102226.91;;;-0.03;100.00
71465;BME280;59274;49.874;9.154;2023-02-11T04:24:03;102229.44;;;0.09;100.00
71465;BME280;59274;49.874;9.154;2023-02-11T04:26:28;102235.53;;;0.05;100.00
71465;BME280;59274;49.874;9.154;2023-02-11T04:28:53;102237.06;;;0.00;100.00
71465;BME280;59274;49.874;9.154;2023-02-11T04:31:19;102238.97;;;0.00;100.00
71465;BME280;59274;49.874;9.154;2023-02-11T04:33:44;102228.56;;;0.04;100.00
71465;BME280;59274;49.874;9.154;2023-02-11T04:36:10;102231.69;;;-0.05;100.00
71465;BME280;59274;49.874;9.154;2023-02-11T04:38:35;102240.28;;;-0.03;100.00
71465;BME280;59274;49.874;9.154;2023-02-11T04:41:01;102252.81;;;-0.03;100.00
71465;BME280;59274;49.874;9.154;2023-02-11T04:43:26;102260.56;;;-0.02;100.00
71465;BME280;59274;49.874;9.154;2023-02-11T04:45:56;102262.94;;;-0.05;100.00
71465;BME280;59274;49.874;9.154;2023-02-11T04:48:21;102265.97;;;0.04;100.00
71465;BME280;59274;49.874;9.154;2023-02-11T04:50:47;102260.81;;;-0.03;100.00
71465;BME280;59274;49.874;9.154;2023-02-11T04:53:12;102259.84;;;-0.19;100.00
71465;BME280;59274;49.874;9.154;2023-02-11T04:55:37;102250.09;;;-0.08;100.00
71465;BME280;59274;49.874;9.154;2023-02-11T04:58:03;102250.38;;;-0.05;100.00
71465;BME280;59274;49.874;9.154;2023-02-11T05:00:28;102243.66;;;-0.07;100.00
71465;BME280;59274;49.874;9.154;2023-02-11T05:02:54;102240.88;;;0.05;100.00
71465;BME280;59274;49.874;9.154;2023-02-11T05:05:19;102241.53;;;0.17;100.00
71465;BME280;59274;49.874;9.154;2023-02-11T05:07:45;102231.06;;;0.15;100.00
71465;BME280;59274;49.874;9.154;2023-02-11T05:10:10;102239.16;;;0.20;100.00
71465;BME280;59274;49.874;9.154;2023-02-11T05:12:36;102223.13;;;0.20;100.00
71465;BME280;59274;49.874;9.154;2023-02-11T05:15:01;102225.66;;;0.37;100.00
71465;BME280;59274;49.874;9.154;2023-02-11T05:17:27;102226.72;;;0.36;100.00
71465;BME280;59274;49.874;9.154;2023-02-11T05:19:52;102222.72;;;0.33;100.00
71465;BME280;59274;49.874;9.154;2023-02-11T05:22:18;102228.31;;;0.32;100.00
71465;BME280;59274;49.874;9.154;2023-02-11T05:24:43;102228.94;;;0.44;100.00
71465;BME280;59274;49.874;9.154;2023-02-11T05:27:09;102228.63;;;0.35;100.00
71465;BME280;59274;49.874;9.154;2023-02-11T05:29:34;102240.63;;;0.38;100.00
71465;BME280;59274;49.874;9.154;2023-02-11T05:32:00;102235.41;;;0.48;100.00
71465;BME280;59274;49.874;9.154;2023-02-11T05:34:25;102232.13;;;0.41;100.00
71465;BME280;59274;49.874;9.154;2023-02-11T05:36:50;102236.91;;;0.39;100.00
71465;BME280;59274;49.874;9.154;2023-02-11T05:39:16;102237.91;;;0.28;100.00
71465;BME280;59274;49.874;9.154;2023-02-11T05:41:41;102238.44;;;0.30;100.00
71465;BME280;59274;49.874;9.154;2023-02-11T05:44:07;102241.38;;;0.28;100.00
71465;BME280;59274;49.874;9.154;2023-02-11T05:46:32;102251.03;;;0.34;100.00
71465;BME280;59274;49.874;9.154;2023-02-11T05:48:58;102244.34;;;0.32;100.00
71465;BME280;59274;49.874;9.154;2023-02-11T05:51:23;102238.63;;;0.23;100.00
71465;BME280;59274;49.874;9.154;2023-02-11T05:53:49;102233.50;;;0.17;100.00
71465;BME280;59274;49.874;9.154;2023-02-11T05:56:15;102229.81;;;0.23;100.00
71465;BME280;59274;49.874;9.154;2023-02-11T05:58:40;102243.28;;;0.33;100.00
71465;BME280;59274;49.874;9.154;2023-02-11T06:01:06;102229.06;;;0.27;100.00
71465;BME280;59274;49.874;9.154;2023-02-11T06:03:31;102223.19;;;0.30;100.00
71465;BME280;59274;49.874;9.154;2023-02-11T06:05:57;102238.16;;;0.26;100.00
71465;BME280;59274;49.874;9.154;2023-02-11T06:08:22;102219.78;;;0.08;100.00
71465;BME280;59274;49.874;9.154;2023-02-11T06:10:48;102228.28;;;0.00;100.00
71465;BME280;59274;49.874;9.154;2023-02-11T06:13:13;102235.78;;;0.03;100.00
71465;BME280;59274;49.874;9.154;2023-02-11T06:15:39;102233.16;;;0.08;100.00
71465;BME280;59274;49.874;9.154;2023-02-11T06:18:04;102230.56;;;0.13;100.00
71465;BME280;59274;49.874;9.154;2023-02-11T06:20:29;102226.47;;;0.06;100.00
71465;BME280;59274;49.874;9.154;2023-02-11T06:22:55;102234.16;;;0.02;100.00
71465;BME280;59274;49.874;9.154;2023-02-11T06:25:21;102221.41;;;0.09;100.00
71465;BME280;59274;49.874;9.154;2023-02-11T06:27:46;102220.88;;;0.07;100.00
71465;BME280;59274;49.874;9.154;2023-02-11T06:30:15;102221.81;;;-0.04;100.00
71465;BME280;59274;49.874;9.154;2023-02-11T06:32:40;102224.31;;;0.08;100.00
71465;BME280;59274;49.874;9.154;2023-02-11T06:35:06;102224.22;;;0.24;100.00
71465;BME280;59274;49.874;9.154;2023-02-11T06:37:33;102223.94;;;0.21;100.00
71465;BME280;59274;49.874;9.154;2023-02-11T06:39:59;102222.47;;;0.08;100.00
71465;BME280;59274;49.874;9.154;2023-02-11T06:42:24;102225.13;;;0.08;100.00
71465;BME280;59274;49.874;9.154;2023-02-11T06:44:50;102219.63;;;-0.07;100.00
71465;BME280;59274;49.874;9.154;2023-02-11T06:47:15;102234.94;;;-0.03;100.00
71465;BME280;59274;49.874;9.154;2023-02-11T06:49:40;102232.00;;;-0.01;100.00
71465;BME280;59274;49.874;9.154;2023-02-11T06:52:06;102236.78;;;-0.03;100.00
71465;BME280;59274;49.874;9.154;2023-02-11T06:54:32;102242.63;;;-0.06;100.00
71465;BME280;59274;49.874;9.154;2023-02-11T06:56:57;102241.88;;;-0.02;100.00
71465;BME280;59274;49.874;9.154;2023-02-11T06:59:23;102242.41;;;0.00;100.00
71465;BME280;59274;49.874;9.154;2023-02-11T07:01:51;102249.66;;;0.00;100.00
71465;BME280;59274;49.874;9.154;2023-02-11T07:04:16;102251.00;;;0.03;100.00
71465;BME280;59274;49.874;9.154;2023-02-11T07:06:42;102252.19;;;-0.10;100.00
71465;BME280;59274;49.874;9.154;2023-02-11T07:09:08;102255.34;;;-0.13;100.00
71465;BME280;59274;49.874;9.154;2023-02-11T07:11:33;102256.06;;;-0.23;100.00
71465;BME280;59274;49.874;9.154;2023-02-11T07:14:01;102246.94;;;-0.27;100.00
71465;BME280;59274;49.874;9.154;2023-02-11T07:16:27;102241.84;;;-0.28;100.00
71465;BME280;59274;49.874;9.154;2023-02-11T07:18:52;102248.78;;;-0.27;100.00
71465;BME280;59274;49.874;9.154;2023-02-11T07:21:20;102261.69;;;-0.19;100.00
71465;BME280;59274;49.874;9.154;2023-02-11T07:23:46;102247.25;;;-0.23;100.00
71465;BME280;59274;49.874;9.154;2023-02-11T07:26:15;102254.94;;;-0.27;100.00
71465;BME280;59274;49.874;9.154;2023-02-11T07:28:42;102238.19;;;-0.22;100.00
71465;BME280;59274;49.874;9.154;2023-02-11T07:31:13;102240.91;;;-0.17;100.00
71465;BME280;59274;49.874;9.154;2023-02-11T07:33:39;102235.06;;;-0.14;100.00
71465;BME280;59274;49.874;9.154;2023-02-11T07:36:06;102234.56;;;-0.11;100.00
71465;BME280;59274;49.874;9.154;2023-02-11T07:38:33;102243.13;;;-0.09;100.00
71465;BME280;59274;49.874;9.154;2023-02-11T07:40:59;102238.16;;;-0.01;100.00
71465;BME280;59274;49.874;9.154;2023-02-11T07:43:25;102245.91;;;0.01;100.00
71465;BME280;59274;49.874;9.154;2023-02-11T07:45:51;102250.75;;;0.04;100.00
71465;BME280;59274;49.874;9.154;2023-02-11T07:48:16;102247.31;;;0.09;100.00
71465;BME280;59274;49.874;9.154;2023-02-11T07:50:42;102246.63;;;0.18;100.00
71465;BME280;59274;49.874;9.154;2023-02-11T07:53:07;102245.34;;;0.26;100.00
71465;BME280;59274;49.874;9.154;2023-02-11T07:55:32;102250.59;;;0.43;100.00
71465;BME280;59274;49.874;9.154;2023-02-11T07:57:58;102241.03;;;0.52;100.00
71465;BME280;59274;49.874;9.154;2023-02-11T08:00:23;102254.50;;;0.67;100.00
71465;BME280;59274;49.874;9.154;2023-02-11T08:02:49;102266.13;;;0.83;100.00
71465;BME280;59274;49.874;9.154;2023-02-11T08:05:14;102270.66;;;0.82;100.00
71465;BME280;59274;49.874;9.154;2023-02-11T08:07:40;102268.84;;;0.93;100.00
71465;BME280;59274;49.874;9.154;2023-02-11T08:10:05;102267.41;;;1.12;100.00
71465;BME280;59274;49.874;9.154;2023-02-11T08:12:31;102279.78;;;1.28;100.00
71465;BME280;59274;49.874;9.154;2023-02-11T08:14:56;102273.19;;;1.41;100.00
71465;BME280;59274;49.874;9.154;2023-02-11T08:17:22;102274.28;;;1.50;100.00
71465;BME280;59274;49.874;9.154;2023-02-11T08:19:47;102272.16;;;1.57;100.00
71465;BME280;59274;49.874;9.154;2023-02-11T08:22:13;102273.59;;;1.85;100.00
71465;BME280;59274;49.874;9.154;2023-02-11T08:24:38;102270.97;;;1.90;100.00
71465;BME280;59274;49.874;9.154;2023-02-11T08:27:03;102274.44;;;1.95;100.00
71465;BME280;59274;49.874;9.154;2023-02-11T08:29:29;102266.97;;;2.08;100.00
71465;BME280;59274;49.874;9.154;2023-02-11T08:31:55;102290.34;;;2.32;100.00
71465;BME280;59274;49.874;9.154;2023-02-11T08:34:20;102276.97;;;2.48;99.33
71465;BME280;59274;49.874;9.154;2023-02-11T08:36:46;102278.28;;;2.45;98.76
71465;BME280;59274;49.874;9.154;2023-02-11T08:39:20;102279.38;;;2.39;99.14
71465;BME280;59274;49.874;9.154;2023-02-11T08:41:51;102279.66;;;2.48;98.92
71465;BME280;59274;49.874;9.154;2023-02-11T08:44:18;102286.09;;;2.82;98.59
71465;BME280;59274;49.874;9.154;2023-02-11T08:46:44;102286.31;;;3.06;98.04
71465;BME280;59274;49.874;9.154;2023-02-11T08:49:10;102285.78;;;3.09;97.42
71465;BME280;59274;49.874;9.154;2023-02-11T08:51:35;102294.59;;;3.30;96.86
71465;BME280;59274;49.874;9.154;2023-02-11T08:54:01;102297.78;;;3.47;96.72
71465;BME280;59274;49.874;9.154;2023-02-11T08:56:27;102296.91;;;3.57;95.63
71465;BME280;59274;49.874;9.154;2023-02-11T08:58:53;102297.41;;;3.74;94.89
71465;BME280;59274;49.874;9.154;2023-02-11T09:01:22;102297.88;;;3.86;94.61
71465;BME280;59274;49.874;9.154;2023-02-11T09:03:48;102294.88;;;3.98;94.80
71465;BME280;59274;49.874;9.154;2023-02-11T09:06:14;102303.47;;;4.00;94.76
71465;BME280;59274;49.874;9.154;2023-02-11T09:08:43;102313.38;;;4.09;93.95
71465;BME280;59274;49.874;9.154;2023-02-11T09:11:09;102311.19;;;4.16;93.74
71465;BME280;59274;49.874;9.154;2023-02-11T09:13:35;102309.97;;;4.38;92.72
71465;BME280;59274;49.874;9.154;2023-02-11T09:16:03;102306.75;;;4.36;92.20
71465;BME280;59274;49.874;9.154;2023-02-11T09:18:29;102311.59;;;4.72;91.34
71465;BME280;59274;49.874;9.154;2023-02-11T09:21:07;102310.41;;;4.84;90.95
71465;BME280;59274;49.874;9.154;2023-02-11T09:23:32;102295.56;;;4.91;89.12
71465;BME280;59274;49.874;9.154;2023-02-11T09:26:20;102297.75;;;5.18;88.39
71465;BME280;59274;49.874;9.154;2023-02-11T09:28:46;102297.47;;;5.43;88.08
71465;BME280;59274;49.874;9.154;2023-02-11T09:31:15;102306.97;;;5.60;88.16
71465;BME280;59274;49.874;9.154;2023-02-11T09:33:42;102301.56;;;5.83;86.73
71465;BME280;59274;49.874;9.154;2023-02-11T09:36:20;102302.00;;;5.96;85.28
71465;BME280;59274;49.874;9.154;2023-02-11T09:38:46;102293.81;;;6.01;85.55
71465;BME280;59274;49.874;9.154;2023-02-11T09:43:55;102306.28;;;5.97;84.51
71465;BME280;59274;49.874;9.154;2023-02-11T09:46:22;102311.59;;;6.02;84.20
71465;BME280;59274;49.874;9.154;2023-02-11T09:48:52;102312.25;;;6.12;84.18
71465;BME280;59274;49.874;9.154;2023-02-11T09:54:30;102308.06;;;6.25;83.71
71465;BME280;59274;49.874;9.154;2023-02-11T09:56:58;102318.91;;;6.20;83.93
71465;BME280;59274;49.874;9.154;2023-02-11T09:59:23;102320.66;;;6.29;82.84
71465;BME280;59274;49.874;9.154;2023-02-11T10:07:34;102324.00;;;6.40;81.28
71465;BME280;59274;49.874;9.154;2023-02-11T10:18:44;102316.84;;;6.49;81.81
71465;BME280;59274;49.874;9.154;2023-02-11T10:21:49;102310.03;;;6.38;81.88
71465;BME280;59274;49.874;9.154;2023-02-11T10:23:59;102317.53;;;6.22;82.95
71465;BME280;59274;49.874;9.154;2023-02-11T10:26:29;102322.72;;;6.38;82.99
71465;BME280;59274;49.874;9.154;2023-02-11T10:28:59;102318.91;;;6.20;82.60
71465;BME280;59274;49.874;9.154;2023-02-11T10:31:39;102319.50;;;6.36;82.17
71465;BME280;59274;49.874;9.154;2023-02-11T10:34:11;102324.69;;;6.32;82.66
71465;BME280;59274;49.874;9.154;2023-02-11T10:36:42;102323.56;;;6.14;83.35
71465;BME280;59274;49.874;9.154;2023-02-11T10:39:15;102316.50;;;6.18;82.83
71465;BME280;59274;49.874;9.154;2023-02-11T10:41:44;102321.66;;;6.34;82.65
71465;BME280;59274;49.874;9.154;2023-02-11T10:44:23;102323.88;;;6.32;82.54
71465;BME280;59274;49.874;9.154;2023-02-11T10:46:50;102317.25;;;6.24;83.49
71465;BME280;59274;49.874;9.154;2023-02-11T10:49:42;102326.25;;;6.33;82.59
71465;BME280;59274;49.874;9.154;2023-02-11T10:52:18;102323.56;;;6.52;82.47
71465;BME280;59274;49.874;9.154;2023-02-11T10:55:04;102328.44;;;6.68;81.78
71465;BME280;59274;49.874;9.154;2023-02-11T10:57:57;102331.72;;;6.65;81.35
71465;BME280;59274;49.874;9.154;2023-02-11T11:00:32;102325.09;;;6.90;80.62
71465;BME280;59274;49.874;9.154;2023-02-11T11:03:02;102326.34;;;6.98;80.42
71465;BME280;59274;49.874;9.154;2023-02-11T11:05:44;102323.69;;;6.79;81.08
71465;BME280;59274;49.874;9.154;2023-02-11T11:08:10;102313.13;;;6.64;81.58
71465;BME280;59274;49.874;9.154;2023-02-11T11:10:42;102315.09;;;6.58;82.14
71465;BME280;59274;49.874;9.154;2023-02-11T11:13:25;102319.66;;;6.44;83.03
71465;BME280;59274;49.874;9.154;2023-02-11T11:16:15;102325.00;;;6.63;81.69
71465;BME280;59274;49.874;9.154;2023-02-11T11:18:43;102326.63;;;6.64;81.98
71465;BME280;59274;49.874;9.154;2023-02-11T11:21:24;102321.78;;;6.61;82.27
71465;BME280;59274;49.874;9.154;2023-02-11T11:23:51;102318.81;;;6.62;82.49
71465;BME280;59274;49.874;9.154;2023-02-11T11:26:18;102317.84;;;6.72;82.18
71465;BME280;59274;49.874;9.154;2023-02-11T11:28:53;102316.16;;;6.76;81.62
71465;BME280;59274;49.874;9.154;2023-02-11T11:33:54;102304.13;;;6.87;80.52
71465;BME280;59274;49.874;9.154;2023-02-11T11:36:23;102299.94;;;6.95;80.25
71465;BME280;59274;49.874;9.154;2023-02-11T11:38:57;102300.22;;;6.93;80.85
71465;BME280;59274;49.874;9.154;2023-02-11T11:41:28;102293.78;;;6.89;80.78
71465;BME280;59274;49.874;9.154;2023-02-11T11:43:59;102298.72;;;6.87;80.51
71465;BME280;59274;49.874;9.154;2023-02-11T11:46:39;102294.34;;;7.05;80.02
71465;BME280;59274;49.874;9.154;2023-02-11T11:51:31;102295.63;;;6.94;81.49
71465;BME280;59274;49.874;9.154;2023-02-11T11:54:08;102291.16;;;7.03;80.80
71465;BME280;59274;49.874;9.154;2023-02-11T11:56:50;102290.31;;;6.89;81.81
71465;BME280;59274;49.874;9.154;2023-02-11T11:59:18;102285.06;;;6.79;82.12
71465;BME280;59274;49.874;9.154;2023-02-11T12:04:29;102282.31;;;6.97;81.38
71465;BME280;59274;49.874;9.154;2023-02-11T12:17:55;102282.69;;;6.91;82.11
71465;BME280;59274;49.874;9.154;2023-02-11T12:28:44;102282.06;;;7.26;81.44
71465;BME280;59274;49.874;9.154;2023-02-11T12:39:38;102287.97;;;7.28;81.90
71465;BME280;59274;49.874;9.154;2023-02-11T12:47:59;102277.84;;;7.34;82.16
71465;BME280;59274;49.874;9.154;2023-02-11T12:56:04;102271.03;;;7.09;83.33
71465;BME280;59274;49.874;9.154;2023-02-11T12:58:34;102272.44;;;7.06;83.77
71465;BME280;59274;49.874;9.154;2023-02-11T13:01:05;102263.91;;;6.99;84.50
71465;BME280;59274;49.874;9.154;2023-02-11T13:06:23;102256.63;;;7.14;83.82
71465;BME280;59274;49.874;9.154;2023-02-11T13:08:59;102256.91;;;7.12;83.49
71465;BME280;59274;49.874;9.154;2023-02-11T13:11:36;102262.53;;;7.16;84.03
71465;BME280;59274;49.874;9.154;2023-02-11T13:14:21;102247.63;;;7.18;83.32
71465;BME280;59274;49.874;9.154;2023-02-11T13:16:49;102255.28;;;6.97;83.90
71465;BME280;59274;49.874;9.154;2023-02-11T13:19:20;102245.31;;;7.25;83.76
71465;BME280;59274;49.874;9.154;2023-02-11T13:24:46;102239.09;;;7.25;84.18
71465;BME280;59274;49.874;9.154;2023-02-11T13:27:37;102248.94;;;7.34;82.97
71465;BME280;59274;49.874;9.154;2023-02-11T13:30:35;102246.63;;;7.28;83.44
71465;BME280;59274;49.874;9.154;2023-02-11T13:33:50;102252.84;;;7.28;83.60
71465;BME280;59274;49.874;9.154;2023-02-11T13:38:24;102261.25;;;7.27;84.10
71465;BME280;59274;49.874;9.154;2023-02-11T13:46:56;102261.94;;;7.19;84.48
71465;BME280;59274;49.874;9.154;2023-02-11T13:49:40;102263.53;;;7.06;84.72
71465;BME280;59274;49.874;9.154;2023-02-11T13:52:29;102262.72;;;7.05;85.46
71465;BME280;59274;49.874;9.154;2023-02-11T13:55:20;102256.63;;;7.00;85.75
71465;BME280;59274;49.874;9.154;2023-02-11T14:19:34;102266.06;;;6.84;86.88
71465;BME280;59274;49.874;9.154;2023-02-11T14:22:05;102273.84;;;6.72;87.77
71465;BME280;59274;49.874;9.154;2023-02-11T14:32:35;102275.00;;;6.52;88.88
71465;BME280;59274;49.874;9.154;2023-02-11T14:40:26;102287.81;;;6.41;89.64
71465;BME280;59274;49.874;9.154;2023-02-11T14:42:54;102282.59;;;6.31;89.66
71465;BME280;59274;49.874;9.154;2023-02-11T14:45:26;102289.00;;;6.35;89.64
71465;BME280;59274;49.874;9.154;2023-02-11T14:48:04;102279.16;;;6.44;89.53
71465;BME280;59274;49.874;9.154;2023-02-11T14:50:45;102288.88;;;6.45;89.57
71465;BME280;59274;49.874;9.154;2023-02-11T14:53:14;102288.13;;;6.40;89.87
71465;BME280;59274;49.874;9.154;2023-02-11T14:55:43;102292.47;;;6.54;89.17
71465;BME280;59274;49.874;9.154;2023-02-11T14:58:14;102286.69;;;6.61;88.62
71465;BME280;59274;49.874;9.154;2023-02-11T15:00:57;102285.69;;;6.57;89.10
71465;BME280;59274;49.874;9.154;2023-02-11T15:03:33;102287.22;;;6.63;88.81
71465;BME280;59274;49.874;9.154;2023-02-11T15:06:16;102293.94;;;6.65;88.13
71465;BME280;59274;49.874;9.154;2023-02-11T15:08:51;102291.91;;;6.57;88.55
71465;BME280;59274;49.874;9.154;2023-02-11T15:11:20;102295.50;;;6.53;88.55
71465;BME280;59274;49.874;9.154;2023-02-11T15:13:47;102306.06;;;6.49;88.73
71465;BME280;59274;49.874;9.154;2023-02-11T15:16:22;102296.59;;;6.52;89.10
71465;BME280;59274;49.874;9.154;2023-02-11T15:18:55;102291.09;;;6.57;89.07
71465;BME280;59274;49.874;9.154;2023-02-11T15:21:31;102303.13;;;6.64;89.10
71465;BME280;59274;49.874;9.154;2023-02-11T15:24:02;102300.94;;;6.66;88.98
71465;BME280;59274;49.874;9.154;2023-02-11T15:26:28;102304.25;;;6.77;88.96
71465;BME280;59274;49.874;9.154;2023-02-11T15:28:54;102307.91;;;6.86;88.87